createdAt,value
2024-05-09T00:02:34.717Z,8.27
2024-05-09T00:07:39.908Z,8.18
2024-05-09T00:12:44.774Z,8.14
2024-05-09T00:17:52.654Z,8.19
2024-05-09T00:22:57.731Z,8.26
2024-05-09T00:28:02.641Z,8.27
2024-05-09T00:33:11.440Z,8.29
2024-05-09T00:38:16.917Z,8.31
2024-05-09T00:43:22.230Z,8.27
2024-05-09T00:48:30.550Z,8.30
2024-05-09T00:53:36.907Z,8.22
2024-05-09T00:58:42.653Z,8.19
2024-05-09T01:03:51.403Z,8.15
2024-05-09T01:08:56.540Z,8.16
2024-05-09T01:14:01.476Z,8.20
2024-05-09T01:19:16.927Z,8.12
2024-05-09T01:24:24.565Z,8.06
2024-05-09T01:29:29.534Z,8.02
2024-05-09T01:34:34.600Z,8.05
2024-05-09T01:39:42.400Z,8.11
2024-05-09T01:44:47.481Z,8.14
2024-05-09T01:49:52.681Z,8.10
2024-05-09T01:55:02.803Z,8.03
2024-05-09T02:00:15.582Z,7.98
2024-05-09T02:05:20.990Z,7.88
2024-05-09T02:10:32.543Z,7.80
2024-05-09T02:15:38.646Z,7.72
2024-05-09T02:20:44.418Z,7.61
2024-05-09T02:25:52.201Z,7.50
2024-05-09T02:30:57.328Z,7.51
2024-05-09T02:36:02.413Z,7.42
2024-05-09T02:41:11.669Z,7.36
2024-05-09T02:46:16.875Z,7.31
2024-05-09T02:51:21.716Z,7.25
2024-05-09T02:56:29.298Z,7.33
2024-05-09T03:01:34.500Z,7.22
2024-05-09T03:06:43.138Z,7.11
2024-05-09T03:11:50.780Z,7.15
2024-05-09T03:16:55.999Z,7.14
2024-05-09T03:22:01.620Z,7.10
2024-05-09T03:27:09.456Z,7.12
2024-05-09T03:32:14.569Z,7.01
2024-05-09T03:37:19.664Z,6.96
2024-05-09T03:42:27.129Z,6.95
2024-05-09T03:47:35.579Z,6.96
2024-05-09T03:52:41.051Z,6.95
2024-05-09T03:57:48.833Z,6.95
2024-05-09T04:02:53.752Z,6.92
2024-05-09T04:07:58.927Z,6.92
2024-05-09T04:13:06.719Z,6.95
2024-05-09T04:18:13.321Z,7.00
2024-05-09T04:23:18.458Z,7.10
2024-05-09T04:28:26.385Z,7.26
2024-05-09T04:33:32.380Z,7.37
2024-05-09T04:38:37.532Z,7.45
2024-05-09T04:43:45.361Z,7.53
2024-05-09T04:48:50.326Z,7.69
2024-05-09T04:53:55.254Z,7.88
2024-05-09T04:59:02.900Z,8.09
2024-05-09T05:04:08.026Z,8.13
2024-05-09T05:09:13.153Z,8.22
2024-05-09T05:14:20.915Z,8.20
2024-05-09T05:19:25.984Z,8.33
2024-05-09T05:24:31.148Z,8.53
2024-05-09T05:29:38.834Z,8.73
2024-05-09T05:34:43.868Z,8.87
2024-05-09T05:39:49.161Z,9.04
2024-05-09T05:44:56.849Z,9.28
2024-05-09T05:50:01.824Z,9.53
2024-05-09T05:55:07.611Z,9.69
2024-05-09T06:00:25.415Z,9.99
2024-05-09T06:05:35.248Z,10.33
2024-05-09T06:10:41.366Z,10.65
2024-05-09T06:15:49.519Z,10.95
2024-05-09T06:20:55.138Z,11.33
2024-05-09T06:26:00.306Z,12.02
2024-05-09T06:31:07.848Z,14.82
2024-05-09T06:36:13.464Z,17.12
2024-05-09T06:41:18.415Z,18.31
2024-05-09T06:46:26.603Z,18.75
2024-05-09T06:51:31.451Z,19.50
2024-05-09T06:56:36.490Z,19.47
2024-05-09T07:01:44.190Z,20.19
2024-05-09T07:06:49.085Z,21.73
2024-05-09T07:11:54.082Z,21.99
2024-05-09T07:17:01.776Z,21.22
2024-05-09T07:22:07.103Z,21.42
2024-05-09T07:27:11.979Z,22.19
2024-05-09T07:32:19.696Z,22.27
2024-05-09T07:37:24.659Z,22.74
2024-05-09T07:42:29.517Z,22.56
2024-05-09T07:48:57.784Z,23.07
2024-05-09T07:53:36.102Z,22.54
2024-05-09T07:58:27.821Z,23.03
2024-05-09T08:03:35.725Z,22.87
2024-05-09T08:08:40.860Z,23.13
2024-05-09T08:13:46.002Z,23.14
2024-05-09T08:18:53.586Z,23.49
2024-05-09T08:23:58.554Z,23.35
2024-05-09T08:29:03.397Z,24.38
2024-05-09T08:34:11.980Z,24.49
2024-05-09T08:39:17.016Z,24.13
2024-05-09T08:44:23.488Z,24.96
2024-05-09T08:49:32.890Z,23.67
2024-05-09T08:54:38.312Z,24.90
2024-05-09T08:59:50.984Z,24.00
2024-05-09T09:05:04.459Z,24.86
2024-05-09T09:10:15.197Z,24.56
2024-05-09T09:15:23.487Z,25.57
2024-05-09T09:20:36.422Z,25.68
2024-05-09T09:25:42.320Z,24.11
2024-05-09T09:30:48.281Z,24.82
2024-05-09T09:35:55.825Z,23.82
2024-05-09T09:41:02.000Z,24.35
2024-05-09T09:46:10.807Z,25.56
2024-05-09T09:51:20.243Z,25.21
2024-05-09T09:56:26.534Z,24.20
2024-05-09T10:01:31.528Z,25.19
2024-05-09T10:06:42.626Z,24.98
2024-05-09T10:11:51.982Z,23.76
2024-05-09T10:17:06.985Z,24.96
2024-05-09T10:22:14.749Z,25.33
2024-05-09T10:27:21.464Z,26.02
2024-05-09T10:32:26.700Z,23.67
2024-05-09T10:37:34.874Z,23.05
2024-05-09T10:42:41.979Z,22.76
2024-05-09T10:47:47.452Z,22.65
2024-05-09T10:52:55.476Z,23.59
2024-05-09T10:58:00.644Z,23.83
2024-05-09T11:03:06.040Z,23.88
2024-05-09T11:08:14.164Z,24.18
2024-05-09T11:13:29.184Z,23.95
2024-05-09T11:18:38.116Z,22.78
2024-05-09T11:23:46.788Z,23.97
2024-05-09T11:28:52.642Z,25.36
2024-05-09T11:33:57.707Z,25.86
2024-05-09T11:39:05.583Z,25.77
2024-05-09T11:44:10.782Z,26.88
2024-05-09T11:49:15.736Z,25.48
2024-05-09T11:54:23.279Z,24.68
2024-05-09T11:59:28.164Z,23.16
2024-05-09T12:04:33.267Z,22.78
2024-05-09T12:09:40.877Z,22.39
2024-05-09T12:14:45.823Z,22.23
2024-05-09T12:19:52.686Z,23.45
2024-05-09T12:25:00.253Z,24.54
2024-05-09T12:30:07.252Z,23.98
2024-05-09T12:35:16.266Z,24.63
2024-05-09T12:40:34.006Z,24.67
2024-05-09T12:45:42.266Z,25.82
2024-05-09T12:50:47.199Z,26.93
2024-05-09T12:55:59.921Z,25.64
2024-05-09T13:01:07.710Z,25.26
2024-05-09T13:06:12.985Z,23.28
2024-05-09T13:11:20.531Z,22.26
2024-05-09T13:16:25.637Z,22.71
2024-05-09T13:21:30.638Z,24.38
2024-05-09T13:26:38.182Z,24.87
2024-05-09T13:31:43.060Z,24.30
2024-05-09T13:36:47.943Z,24.34
2024-05-09T13:41:55.459Z,24.72
2024-05-09T13:47:00.847Z,25.49
2024-05-09T13:52:05.830Z,25.65
2024-05-09T13:57:13.368Z,25.14
2024-05-09T14:02:18.622Z,25.90
2024-05-09T14:07:24.233Z,25.37
2024-05-09T14:12:31.846Z,23.26
2024-05-09T14:17:36.880Z,22.71
2024-05-09T14:22:42.258Z,23.06
2024-05-09T14:27:49.848Z,23.69
2024-05-09T14:32:54.844Z,24.08
2024-05-09T14:37:59.961Z,23.12
2024-05-09T14:43:07.938Z,22.03
2024-05-09T14:48:14.139Z,22.66
2024-05-09T14:53:19.293Z,22.62
2024-05-09T14:58:27.350Z,22.88
2024-05-09T15:03:32.428Z,23.06
2024-05-09T15:08:37.632Z,22.85
2024-05-09T15:13:45.111Z,22.82
2024-05-09T15:18:50.386Z,23.37
2024-05-09T15:23:55.768Z,22.85
2024-05-09T15:29:03.282Z,22.12
2024-05-09T15:34:08.379Z,21.67
2024-05-09T15:39:13.478Z,21.66
2024-05-09T15:44:21.273Z,21.98
2024-05-09T15:49:26.333Z,21.82
2024-05-09T15:54:31.314Z,21.94
2024-05-09T15:59:39.008Z,22.27
2024-05-09T16:04:44.080Z,22.21
2024-05-09T16:09:49.577Z,22.22
2024-05-09T16:14:57.117Z,22.30
2024-05-09T16:20:03.888Z,21.87
2024-05-09T16:25:12.221Z,21.99
2024-05-09T16:30:27.880Z,21.63
2024-05-09T16:35:39.297Z,21.32
2024-05-09T16:40:44.390Z,20.87
2024-05-09T16:45:52.019Z,20.75
2024-05-09T16:50:56.908Z,20.81
2024-05-09T16:56:02.141Z,20.62
2024-05-09T17:01:13.841Z,20.32
2024-05-09T17:06:19.014Z,20.33
2024-05-09T17:11:23.941Z,20.06
2024-05-09T17:16:31.625Z,20.27
2024-05-09T17:21:38.305Z,20.05
2024-05-09T17:26:43.545Z,19.58
2024-05-09T17:31:51.373Z,19.41
2024-05-09T17:36:56.781Z,19.25
2024-05-09T17:42:01.890Z,18.80
2024-05-09T17:47:09.455Z,18.51
2024-05-09T17:52:14.501Z,18.28
2024-05-09T17:57:19.564Z,18.11
2024-05-09T18:02:27.227Z,17.93
2024-05-09T18:07:32.461Z,17.59
2024-05-09T18:12:37.474Z,17.15
2024-05-09T18:17:45.327Z,16.99
2024-05-09T18:22:50.456Z,16.76
2024-05-09T18:27:55.663Z,16.54
2024-05-09T18:33:03.597Z,16.34
2024-05-09T18:38:08.687Z,16.02
2024-05-09T18:43:13.639Z,15.87
2024-05-09T18:48:21.993Z,15.49
2024-05-09T18:53:27.390Z,15.22
2024-05-09T18:58:32.574Z,14.89
2024-05-09T19:03:40.826Z,14.69
2024-05-09T19:08:46.159Z,14.46
2024-05-09T19:13:51.048Z,14.19
2024-05-09T19:18:59.228Z,14.03
2024-05-09T19:24:04.183Z,13.92
2024-05-09T19:29:09.063Z,13.83
2024-05-09T19:34:17.000Z,13.74
2024-05-09T19:39:21.952Z,13.77
2024-05-09T19:44:26.821Z,13.72
2024-05-09T19:49:34.499Z,13.57
2024-05-09T19:54:39.437Z,13.41
2024-05-09T19:59:44.485Z,13.28
2024-05-09T20:04:53.715Z,13.15
2024-05-09T20:09:58.750Z,13.00
2024-05-09T20:15:03.844Z,12.88
2024-05-09T20:20:20.294Z,12.84
2024-05-09T20:25:33.148Z,13.05
2024-05-09T20:30:38.449Z,13.16
2024-05-09T20:35:46.286Z,13.28
2024-05-09T20:40:51.297Z,13.17
2024-05-09T20:45:56.503Z,12.94
2024-05-09T20:51:04.079Z,12.84
2024-05-09T20:56:10.021Z,12.78
2024-05-09T21:01:15.038Z,12.92
2024-05-09T21:06:22.758Z,13.12
2024-05-09T21:11:27.925Z,13.34
2024-05-09T21:16:34.276Z,13.41
2024-05-09T21:21:44.498Z,13.31
2024-05-09T21:26:49.452Z,13.20
2024-05-09T21:31:54.536Z,13.11
2024-05-09T21:37:02.032Z,13.01
2024-05-09T21:42:07.527Z,12.98
2024-05-09T21:47:12.558Z,12.91
2024-05-09T21:52:20.211Z,12.80
2024-05-09T21:57:25.391Z,12.66
2024-05-09T22:02:30.664Z,12.60
2024-05-09T22:07:38.313Z,12.37
2024-05-09T22:12:43.400Z,12.22
2024-05-09T22:17:48.594Z,12.19
2024-05-09T22:22:56.874Z,12.41
2024-05-09T22:28:02.294Z,12.42
2024-05-09T22:33:09.689Z,12.45
2024-05-09T22:38:18.712Z,12.15
2024-05-09T22:43:25.214Z,12.06
2024-05-09T22:48:30.429Z,11.83
2024-05-09T22:53:38.031Z,11.67
2024-05-09T22:58:42.979Z,11.50
2024-05-09T23:03:48.054Z,11.35
2024-05-09T23:08:55.639Z,11.24
2024-05-09T23:14:00.808Z,11.23
2024-05-09T23:19:05.955Z,11.32
2024-05-09T23:24:13.534Z,11.37
2024-05-09T23:29:18.423Z,11.33
2024-05-09T23:34:23.983Z,11.30
2024-05-09T23:39:31.514Z,11.24
2024-05-09T23:44:36.501Z,11.19
2024-05-09T23:49:41.435Z,11.15
2024-05-09T23:54:48.965Z,10.97
2024-05-09T23:59:54.142Z,10.82
